.
WxDataArchive / Data Records for 2009-10-03
2009-10-02 October 2009 2009-10-04

Data Records for Saturday, 03 October 2009

Time	Temp	Chill	HIndex	Humid	Dewpt	 Wind 	HiWind	WindDir	Rain 	Barom 
-----	----	-----	------	-----	-----	------	------	-------	-----	----- 
00:00	52.3	52.3	52.3	69	42.4	0	3	90	0.00	29.658 
00:05	52.3	52.3	52.3	69	42.4	0	1	90	0.00	29.658 
00:10	52.2	52.2	52.2	69	42.3	0	1	90	0.00	29.658 
00:15	52.2	52.2	52.2	69	42.3	0	4	112	0.00	29.651 
00:20	52.0	52.0	52.0	69	42.1	0	1	112	0.00	29.651 
00:25	52.0	52.0	52.0	70	42.5	0	0	---	0.00	29.651 
00:30	52.0	52.0	52.0	70	42.5	0	1	112	0.00	29.651 
00:35	52.0	52.0	52.0	70	42.5	0	1	112	0.00	29.651 
00:40	52.0	52.0	52.0	70	42.5	0	2	112	0.00	29.651 
00:45	52.2	52.2	52.2	69	42.3	0	2	112	0.00	29.650 
00:50	52.2	52.2	52.2	69	42.3	0	2	112	0.00	29.650 
00:55	52.3	52.3	52.3	69	42.4	0	1	112	0.00	29.650 
01:00	52.3	52.3	52.3	69	42.4	0	1	112	0.00	29.647 
01:05	52.3	52.3	52.3	69	42.4	0	2	68	0.00	29.647 
01:10	52.3	52.3	52.3	70	42.8	0	1	68	0.00	29.647 
01:15	52.3	52.3	52.3	71	43.2	0	2	68	0.00	29.638 
01:20	52.3	52.3	52.3	71	43.2	0	1	68	0.00	29.638 
01:25	52.2	52.2	52.2	71	43.1	0	1	68	0.00	29.638 
01:30	52.2	52.2	52.2	71	43.1	0	1	68	0.00	29.638 
01:35	52.2	52.2	52.2	71	43.1	0	1	68	0.00	29.638 
01:40	52.2	52.2	52.2	71	43.1	0	1	68	0.00	29.638 
01:45	52.3	52.3	52.3	71	43.2	0	0	---	0.00	29.634 
01:50	52.3	52.3	52.3	70	42.8	0	3	112	0.00	29.634 
01:55	52.3	52.3	52.3	70	42.8	0	2	90	0.00	29.634 
02:00	52.3	52.3	52.3	70	42.8	0	2	90	0.00	29.632 
02:05	52.5	52.5	52.5	70	43.0	0	1	90	0.00	29.632 
02:10	52.5	52.5	52.5	70	43.0	0	1	90	0.00	29.632 
02:15	52.5	52.5	52.5	70	43.0	0	1	90	0.00	29.633 
02:20	52.5	52.5	52.5	70	43.0	0	2	90	0.00	29.633 
02:25	52.3	52.3	52.3	70	42.8	0	1	90	0.00	29.633 
02:30	52.3	52.3	52.3	71	43.2	0	2	90	0.00	29.624 
02:35	52.2	52.2	52.2	71	43.1	0	1	90	0.00	29.624 
02:40	52.2	52.2	52.2	72	43.4	0	1	90	0.00	29.624 
02:45	52.0	52.0	52.0	72	43.3	0	1	90	0.00	29.620 
02:50	52.0	52.0	52.0	72	43.3	0	1	90	0.00	29.620 
02:55	51.9	51.9	51.9	72	43.2	0	1	90	0.00	29.620 
03:00	51.9	51.9	51.9	73	43.5	0	3	90	0.00	29.619 
03:05	51.9	51.9	51.9	73	43.5	0	3	90	0.00	29.619 
03:10	51.9	51.9	51.9	72	43.2	0	2	90	0.00	29.619 
03:15	51.9	51.9	51.9	72	43.2	0	1	90	0.00	29.621 
03:20	51.9	51.9	51.9	73	43.5	0	0	---	0.00	29.621 
03:25	51.9	51.9	51.9	73	43.5	0	2	90	0.00	29.621 
03:30	52.0	52.0	52.0	72	43.3	0	2	90	0.00	29.620 
03:35	52.0	52.0	52.0	72	43.3	0	1	90	0.00	29.620 
03:40	52.2	52.2	52.2	72	43.4	0	1	90	0.00	29.620 
03:45	52.3	52.3	52.3	70	42.8	0	2	270	0.00	29.613 
03:50	52.5	52.5	52.5	70	43.0	0	0	---	0.00	29.613 
03:55	52.5	52.5	52.5	70	43.0	0	1	270	0.00	29.613 
04:00	52.6	52.6	52.6	69	42.7	0	2	270	0.00	29.610 
04:05	52.8	52.8	52.8	69	42.9	0	2	270	0.00	29.610 
04:10	52.8	52.8	52.8	69	42.9	0	1	292	0.00	29.610 
04:15	52.9	52.9	52.9	69	43.0	0	1	292	0.00	29.607 
04:20	52.9	52.9	52.9	69	43.0	0	2	292	0.00	29.607 
04:25	52.9	52.9	52.9	69	43.0	0	1	248	0.00	29.607 
04:30	52.9	52.9	52.9	70	43.4	0	2	248	0.00	29.612 
04:35	52.8	52.8	52.8	71	43.7	0	2	248	0.00	29.612 
04:40	52.8	52.8	52.8	72	44.0	0	3	248	0.00	29.612 
04:45	52.5	52.5	52.5	73	44.1	0	1	248	0.01	29.617 
04:50	52.3	52.3	52.3	75	44.6	0	0	---	0.00	29.617 
04:55	52.0	52.0	52.0	76	44.7	1	2	248	0.00	29.617 
05:00	51.9	51.9	51.9	76	44.6	0	2	248	0.00	29.621 
05:05	51.9	51.9	51.9	77	44.9	1	3	292	0.00	29.621 
05:10	51.7	51.7	51.7	77	44.7	0	3	270	0.00	29.621 
05:15	51.6	51.6	51.6	78	45.0	1	5	270	0.00	29.622 
05:20	51.4	51.4	51.4	78	44.8	0	2	225	0.00	29.622 
05:25	51.3	51.3	51.3	79	45.0	0	3	225	0.00	29.622 
05:30	51.1	51.1	51.1	79	44.8	0	2	225	0.00	29.622 
05:35	51.1	51.1	51.1	79	44.8	0	2	248	0.00	29.622 
05:40	51.1	51.1	51.1	80	45.1	0	3	248	0.00	29.622 
05:45	51.1	51.1	51.1	81	45.5	0	0	---	0.00	29.623 
05:50	51.0	51.0	51.0	81	45.4	0	1	248	0.00	29.623 
05:55	51.0	51.0	51.0	83	46.0	0	2	248	0.00	29.623 
06:00	50.7	50.7	50.7	84	46.0	0	1	248	0.01	29.637 
06:05	50.5	50.5	50.5	85	46.2	1	3	248	0.01	29.637 
06:10	50.2	50.2	50.2	87	46.5	1	4	270	0.01	29.637 
06:15	49.9	49.9	49.9	88	46.5	0	0	---	0.00	29.635 
06:20	49.6	49.6	49.6	88	46.2	0	1	270	0.00	29.635 
06:25	49.4	49.4	49.4	89	46.3	0	1	270	0.00	29.635 
06:30	49.2	49.2	49.2	89	46.1	0	1	270	0.00	29.635 
06:35	48.9	48.9	48.9	90	46.1	0	2	270	0.00	29.635 
06:40	48.8	48.8	48.8	90	46.0	0	1	270	0.00	29.635 
06:45	48.8	48.8	48.8	90	46.0	1	5	248	0.00	29.631 
06:50	48.6	48.6	48.6	90	45.8	0	3	248	0.00	29.631 
06:55	48.6	48.6	48.6	90	45.8	0	2	315	0.00	29.631 
07:00	48.5	48.5	48.5	90	45.7	0	3	248	0.00	29.638 
07:05	48.5	48.5	48.5	90	45.7	1	3	248	0.00	29.638 
07:10	48.3	48.3	48.3	89	45.2	1	4	248	0.00	29.638 
07:15	48.3	48.3	48.3	89	45.2	0	2	270	0.00	29.642 
07:20	48.3	48.3	48.3	88	44.9	0	2	270	0.00	29.642 
07:25	48.3	48.3	48.3	88	44.9	1	4	270	0.00	29.642 
07:30	48.3	48.3	48.3	88	44.9	1	3	270	0.00	29.639 
07:35	48.3	48.3	48.3	87	44.6	0	2	248	0.00	29.639 
07:40	48.3	48.3	48.3	87	44.6	0	3	248	0.00	29.639 
07:45	48.5	48.5	48.5	87	44.8	0	3	248	0.00	29.640 
07:50	48.5	48.5	48.5	86	44.5	0	3	248	0.00	29.640 
07:55	48.5	48.5	48.5	86	44.5	0	2	248	0.00	29.640 
08:00	48.6	48.6	48.6	86	44.6	0	2	248	0.00	29.641 
08:05	48.6	48.6	48.6	86	44.6	0	4	248	0.00	29.641 
08:10	48.6	48.6	48.6	86	44.6	0	2	248	0.00	29.641 
08:15	48.8	48.8	48.8	86	44.8	0	4	248	0.00	29.644 
08:20	48.8	48.8	48.8	85	44.5	0	3	248	0.00	29.644 
08:25	48.9	48.9	48.9	85	44.6	0	2	248	0.00	29.644 
08:30	49.1	49.1	49.1	85	44.8	0	3	248	0.00	29.651 
08:35	49.1	49.1	49.1	84	44.5	0	2	248	0.00	29.651 
08:40	49.2	49.2	49.2	84	44.6	1	4	270	0.00	29.651 
08:45	49.4	49.4	49.4	83	44.5	1	4	270	0.00	29.658 
08:50	49.5	49.5	49.5	83	44.6	0	4	248	0.00	29.658 
08:55	49.5	49.5	49.5	82	44.2	1	3	248	0.00	29.658 
09:00	49.6	49.6	49.6	82	44.3	0	3	248	0.00	29.659 
09:05	49.6	49.6	49.6	82	44.3	1	5	248	0.00	29.659 
09:10	49.8	49.8	49.8	82	44.5	1	4	248	0.00	29.659 
09:15	49.8	49.8	49.8	82	44.5	1	4	270	0.00	29.664 
09:20	49.8	49.8	49.8	82	44.5	1	3	248	0.00	29.664 
09:25	49.8	49.8	49.8	82	44.5	1	3	248	0.00	29.664 
09:30	49.8	49.8	49.8	81	44.2	1	4	270	0.00	29.671 
09:35	49.8	49.8	49.8	81	44.2	0	3	248	0.00	29.671 
09:40	49.8	49.8	49.8	81	44.2	1	4	248	0.00	29.671 
09:45	49.8	49.8	49.8	81	44.2	1	4	248	0.00	29.676 
09:50	49.9	49.9	49.9	81	44.3	1	4	248	0.00	29.676 
09:55	49.9	49.9	49.9	81	44.3	1	3	248	0.00	29.676 
10:00	50.1	50.1	50.1	81	44.5	1	4	292	0.00	29.686 
10:05	50.1	50.1	50.1	80	44.2	2	5	248	0.00	29.686 
10:10	50.1	50.1	50.1	80	44.2	2	10	270	0.00	29.686 
10:15	50.2	50.2	50.2	80	44.3	1	4	248	0.00	29.690 
10:20	50.1	50.1	50.1	80	44.2	1	5	248	0.00	29.690 
10:25	50.1	50.1	50.1	81	44.5	1	5	270	0.00	29.690 
10:30	50.1	50.1	50.1	81	44.5	1	5	270	0.00	29.693 
10:35	50.1	50.1	50.1	81	44.5	1	4	248	0.00	29.693 
10:40	50.1	50.1	50.1	81	44.5	1	7	248	0.00	29.693 
10:45	50.1	50.1	50.1	81	44.5	2	5	270	0.00	29.701 
10:50	50.2	50.2	50.2	82	44.9	2	5	270	0.00	29.701 
10:55	50.4	50.4	50.4	82	45.1	2	7	248	0.00	29.701 
11:00	50.4	50.4	50.4	82	45.1	1	4	248	0.00	29.705 
11:05	50.4	50.4	50.4	82	45.1	1	4	248	0.00	29.705 
11:10	50.4	50.4	50.4	83	45.4	1	3	225	0.00	29.705 
11:15	50.2	50.2	50.2	83	45.2	1	6	248	0.00	29.714 
11:20	50.2	50.2	50.2	83	45.2	2	6	248	0.00	29.714 
11:25	50.2	50.2	50.2	83	45.2	1	5	292	0.00	29.714 
11:30	50.4	50.4	50.4	83	45.4	2	5	248	0.00	29.718 
11:35	50.5	50.5	50.5	83	45.5	1	4	292	0.00	29.718 
11:40	50.8	50.8	50.8	82	45.5	2	6	292	0.00	29.718 
11:45	50.8	50.8	50.8	82	45.5	2	4	248	0.00	29.720 
11:50	50.7	50.7	50.7	83	45.7	2	5	270	0.00	29.720 
11:55	50.5	50.5	50.5	84	45.8	2	6	270	0.00	29.720 
12:00	50.8	50.8	50.8	84	46.1	1	5	270	0.00	29.724 
12:05	51.0	51.0	51.0	84	46.3	2	4	248	0.00	29.724 
12:10	51.0	51.0	51.0	84	46.3	1	4	270	0.00	29.724 
12:15	51.0	51.0	51.0	84	46.3	2	5	270	0.00	29.727 
12:20	51.3	51.3	51.3	85	46.9	1	3	270	0.00	29.727 
12:25	51.6	51.6	51.6	84	46.9	1	5	270	0.00	29.727 
12:30	52.0	52.0	52.0	83	47.0	1	4	292	0.00	29.724 
12:35	52.3	52.3	52.3	82	47.0	1	3	292	0.00	29.724 
12:40	52.5	52.5	52.5	80	46.5	2	4	248	0.00	29.724 
12:45	52.6	52.6	52.6	80	46.6	2	5	248	0.00	29.732 
12:50	52.9	52.9	52.9	79	46.6	1	5	248	0.00	29.732 
12:55	53.1	53.1	53.1	78	46.4	1	3	270	0.00	29.732 
13:00	53.1	53.1	53.1	78	46.4	2	4	270	0.00	29.735 
13:05	52.8	52.8	52.8	77	45.8	1	4	270	0.00	29.735 
13:10	52.6	52.6	52.6	78	45.9	2	5	248	0.00	29.735 
13:15	52.8	52.8	52.8	78	46.1	1	5	248	0.00	29.739 
13:20	52.9	52.9	52.9	78	46.2	2	5	270	0.00	29.739 
13:25	52.9	52.9	52.9	77	45.9	2	6	270	0.00	29.739 
13:30	53.2	53.2	53.2	78	46.5	0	1	270	0.00	29.745 
13:35	53.5	53.5	53.5	77	46.5	1	4	270	0.00	29.745 
13:40	53.6	53.6	53.6	74	45.5	1	6	270	0.00	29.745 
13:45	53.5	53.5	53.5	74	45.4	2	4	270	0.00	29.742 
13:50	53.5	53.5	53.5	76	46.1	1	4	292	0.00	29.742 
13:55	53.5	53.5	53.5	77	46.5	1	5	270	0.00	29.742 
14:00	53.2	53.2	53.2	78	46.5	1	4	270	0.00	29.750 
14:05	52.9	52.9	52.9	80	46.9	2	4	270	0.00	29.750 
14:10	52.5	52.5	52.5	83	47.5	1	3	248	0.01	29.750 
14:15	52.3	52.3	52.3	84	47.6	1	5	248	0.00	29.751 
14:20	52.2	52.2	52.2	85	47.8	1	3	292	0.00	29.751 
14:25	52.2	52.2	52.2	86	48.1	1	5	292	0.00	29.751 
14:30	52.2	52.2	52.2	86	48.1	1	3	270	0.00	29.753 
14:35	52.2	52.2	52.2	87	48.4	1	4	248	0.00	29.753 
14:40	52.2	52.2	52.2	88	48.8	1	4	270	0.00	29.753 
14:45	52.3	52.3	52.3	88	48.9	1	3	225	0.00	29.753 
14:50	52.5	52.5	52.5	89	49.4	1	3	225	0.00	29.753 
14:55	52.6	52.6	52.6	88	49.1	1	3	270	0.00	29.753 
15:00	52.8	52.8	52.8	88	49.3	1	2	270	0.00	29.757 
15:05	53.1	53.1	53.1	87	49.3	1	4	248	0.00	29.757 
15:10	53.1	53.1	53.1	86	49.0	1	3	270	0.00	29.757 
15:15	53.2	53.2	53.2	84	48.5	2	4	248	0.00	29.758 
15:20	53.3	53.3	53.3	83	48.3	2	6	270	0.00	29.758 
15:25	53.6	53.6	53.6	83	48.6	2	4	270	0.00	29.758 
15:30	53.9	53.9	53.9	81	48.2	1	5	248	0.00	29.762 
15:35	54.2	54.2	54.2	81	48.5	1	4	248	0.00	29.762 
15:40	54.7	54.7	54.7	80	48.7	1	3	248	0.00	29.762 
15:45	55.3	55.3	55.3	78	48.6	1	5	248	0.00	29.761 
15:50	55.4	55.4	55.4	77	48.3	1	5	270	0.00	29.761 
15:55	55.3	55.3	55.3	75	47.5	1	4	270	0.00	29.761 
16:00	55.1	55.1	55.1	76	47.7	2	5	270	0.00	29.764 
16:05	55.1	55.1	55.1	76	47.7	1	3	248	0.00	29.764 
16:10	55.1	55.1	55.1	76	47.7	1	4	248	0.00	29.764 
16:15	55.3	55.3	55.3	75	47.5	1	3	225	0.00	29.766 
16:20	55.4	55.4	55.4	76	48.0	1	2	225	0.00	29.766 
16:25	55.4	55.4	55.4	74	47.3	2	4	270	0.00	29.766 
16:30	55.4	55.4	55.4	73	46.9	2	6	270	0.00	29.769 
16:35	55.1	55.1	55.1	75	47.3	1	3	270	0.00	29.769 
16:40	54.8	54.8	54.8	74	46.7	3	5	270	0.00	29.769 
16:45	54.7	54.7	54.7	74	46.6	2	6	270	0.00	29.778 
16:50	54.7	54.7	54.7	75	46.9	1	4	270	0.00	29.778 
16:55	54.7	54.7	54.7	76	47.3	1	3	225	0.00	29.778 
17:00	54.5	54.5	54.5	74	46.4	1	7	270	0.00	29.780 
17:05	54.5	54.5	54.5	74	46.4	2	7	248	0.00	29.780 
17:10	54.5	54.5	54.5	75	46.7	1	4	270	0.00	29.780 
17:15	54.5	54.5	54.5	75	46.7	1	5	270	0.00	29.789 
17:20	54.5	54.5	54.5	74	46.4	1	4	270	0.00	29.789 
17:25	54.5	54.5	54.5	75	46.7	1	4	270	0.00	29.789 
17:30	54.5	54.5	54.5	74	46.4	1	4	248	0.00	29.794 
17:35	54.7	54.7	54.7	73	46.2	2	7	270	0.00	29.794 
17:40	54.8	54.8	54.8	74	46.7	1	3	292	0.00	29.794 
17:45	55.0	55.0	55.0	73	46.5	2	10	292	0.00	29.798 
17:50	54.8	54.8	54.8	73	46.3	2	5	270	0.00	29.798 
17:55	54.5	54.5	54.5	73	46.0	2	6	248	0.00	29.798 
18:00	54.4	54.4	54.4	74	46.3	2	7	270	0.00	29.811 
18:05	54.2	54.2	54.2	75	46.4	1	5	248	0.00	29.811 
18:10	54.2	54.2	54.2	76	46.8	1	3	270	0.00	29.811 
18:15	54.1	54.1	54.1	76	46.7	1	3	270	0.00	29.814 
18:20	54.1	54.1	54.1	76	46.7	1	4	270	0.00	29.814 
18:25	54.1	54.1	54.1	76	46.7	1	3	270	0.00	29.814 
18:30	54.1	54.1	54.1	76	46.7	1	4	270	0.00	29.816 
18:35	54.1	54.1	54.1	76	46.7	0	2	270	0.00	29.816 
18:40	54.1	54.1	54.1	76	46.7	1	6	270	0.00	29.816 
18:45	54.1	54.1	54.1	76	46.7	1	4	292	0.00	29.820 
18:50	53.9	53.9	53.9	75	46.2	2	5	292	0.00	29.820 
18:55	53.9	53.9	53.9	75	46.2	1	4	248	0.00	29.820 
19:00	53.9	53.9	53.9	75	46.2	0	3	248	0.00	29.825 
19:05	53.9	53.9	53.9	75	46.2	1	3	248	0.00	29.825 
19:10	53.9	53.9	53.9	76	46.5	0	2	248	0.00	29.825 
19:15	53.8	53.8	53.8	76	46.4	1	2	248	0.00	29.830 
19:20	53.8	53.8	53.8	76	46.4	1	4	248	0.00	29.830 
19:25	53.6	53.6	53.6	76	46.2	1	2	270	0.00	29.830 
19:30	53.6	53.6	53.6	76	46.2	1	3	270	0.00	29.834 
19:35	53.6	53.6	53.6	76	46.2	1	3	225	0.00	29.834 
19:40	53.6	53.6	53.6	76	46.2	1	3	225	0.00	29.834 
19:45	53.6	53.6	53.6	76	46.2	0	3	225	0.00	29.840 
19:50	53.6	53.6	53.6	76	46.2	0	2	225	0.00	29.840 
19:55	53.5	53.5	53.5	77	46.5	1	3	225	0.00	29.840 
20:00	53.5	53.5	53.5	76	46.1	1	3	225	0.00	29.841 
20:05	53.5	53.5	53.5	76	46.1	1	5	270	0.00	29.841 
20:10	53.5	53.5	53.5	77	46.5	1	2	270	0.00	29.841 
20:15	53.5	53.5	53.5	77	46.5	1	3	248	0.00	29.839 
20:20	53.3	53.3	53.3	77	46.3	1	2	248	0.00	29.839 
20:25	53.2	53.2	53.2	77	46.2	1	5	248	0.00	29.839 
20:30	53.2	53.2	53.2	77	46.2	1	3	248	0.00	29.846 
20:35	53.2	53.2	53.2	78	46.5	1	4	270	0.00	29.846 
20:40	53.1	53.1	53.1	78	46.4	2	4	270	0.00	29.846 
20:45	53.1	53.1	53.1	78	46.4	1	6	248	0.00	29.848 
20:50	52.9	52.9	52.9	78	46.2	1	3	248	0.00	29.848 
20:55	52.9	52.9	52.9	77	45.9	2	6	270	0.00	29.848 
21:00	52.9	52.9	52.9	77	45.9	1	5	270	0.00	29.853 
21:05	52.9	52.9	52.9	77	45.9	1	4	270	0.00	29.853 
21:10	52.8	52.8	52.8	77	45.8	1	5	248	0.00	29.853 
21:15	52.8	52.8	52.8	77	45.8	1	3	270	0.00	29.859 
21:20	52.6	52.6	52.6	77	45.6	1	5	225	0.00	29.859 
21:25	52.6	52.6	52.6	78	45.9	1	5	292	0.00	29.859 
21:30	52.6	52.6	52.6	78	45.9	1	4	248	0.00	29.862 
21:35	52.5	52.5	52.5	79	46.2	2	5	248	0.00	29.862 
21:40	52.5	52.5	52.5	79	46.2	1	4	248	0.00	29.862 
21:45	52.5	52.5	52.5	79	46.2	1	3	292	0.00	29.863 
21:50	52.3	52.3	52.3	80	46.3	1	3	248	0.00	29.863 
21:55	52.3	52.3	52.3	80	46.3	1	3	248	0.00	29.863 
22:00	52.2	52.2	52.2	80	46.2	1	3	248	0.00	29.863 
22:05	52.2	52.2	52.2	80	46.2	1	3	248	0.00	29.863 
22:10	52.2	52.2	52.2	80	46.2	1	3	225	0.00	29.863 
22:15	52.2	52.2	52.2	80	46.2	1	4	248	0.00	29.863 
22:20	52.2	52.2	52.2	80	46.2	1	4	248	0.00	29.863 
22:25	52.2	52.2	52.2	80	46.2	1	3	248	0.00	29.863 
22:30	52.2	52.2	52.2	80	46.2	1	5	248	0.00	29.864 
22:35	52.2	52.2	52.2	80	46.2	1	4	248	0.00	29.864 
22:40	52.0	52.0	52.0	80	46.0	1	4	248	0.00	29.864 
22:45	52.0	52.0	52.0	80	46.0	2	4	270	0.00	29.869 
22:50	52.2	52.2	52.2	80	46.2	1	4	270	0.00	29.869 
22:55	52.2	52.2	52.2	80	46.2	1	3	270	0.00	29.869 
23:00	52.2	52.2	52.2	80	46.2	1	4	270	0.00	29.874 
23:05	52.2	52.2	52.2	80	46.2	1	5	270	0.00	29.874 
23:10	52.2	52.2	52.2	80	46.2	1	3	270	0.00	29.874 
23:15	52.2	52.2	52.2	80	46.2	1	4	248	0.00	29.877 
23:20	52.0	52.0	52.0	80	46.0	1	2	248	0.00	29.877 
23:25	52.0	52.0	52.0	81	46.4	0	2	248	0.00	29.877 
23:30	52.0	52.0	52.0	81	46.4	0	3	248	0.00	29.879 
23:35	52.0	52.0	52.0	81	46.4	1	3	248	0.00	29.879 
23:40	52.0	52.0	52.0	81	46.4	0	2	248	0.00	29.879 
23:45	51.9	51.9	51.9	82	46.6	2	4	248	0.00	29.881 
23:50	51.6	51.6	51.6	83	46.6	2	6	270	0.00	29.881 
23:55	51.3	51.3	51.3	84	46.6	1	3	270	0.00	29.881 

CoCoRaHS
IN-AL-39
A2 Web Hosting
Creative Commons License
GoDaddy
search engine by freefind advanced

loaded 2018-11-17 12:32:38 • last modified 2010-11-18 10:43:29
Privacy PolicyDisclaimer
• wx.awcolley.com is powered by PmWiki v.2002016 •
• all content (unless otherwise noted) © 2018 A W Colley